• Join FlightAware (Why Join?)
  • Login
  • US Flag 
01:33AM EDT


 

Airport Tracker/Info


-or-


 

Live Flight TrackerFlight Track Log ✈ CRQ907 ✈ 20-Oct-2013 ✈ CYUL - CYVO

Flight Track Log - Related Links

Times and Time Zones

All times are in EDT time to prevent confusion due to time zone crossing. See the CRQ907 flight status page for this flight to view local times or setup timezone preferences in your user account.

Time Position Orientation Groundspeed Altitude Reporting Facility
EDT Latitude Longitude Course Direction KTS MPH feet Rate Location/Type
08:21AM 45.4500 -73.7500 325° Northwest 140 161 1,600  Level Montreal Center
08:22AM 45.4833 -73.8000 314° West 150 173 3,300 1,560 Climbing Montreal Center
08:23AM 45.5000 -73.8333 306° West 150 173 4,800 1,500 Climbing Montreal Center
08:24AM 45.5167 -73.8833 295° West 140 161 6,400 1,500 Climbing Montreal Center
08:25AM 45.5500 -73.9500 306° West 150 173 7,900 1,500 Climbing Montreal Center
08:26AM 45.7002 -74.1836 325° Northwest  Level FlightAware Approximate
08:26AM 45.5667 -74.0000 295° West 160 184 9,400  Level Montreal Center
08:27AM 45.6000 -74.0500 314° West 160 184 10,800 1,380 Climbing Montreal Center
08:28AM 45.6167 -74.1000 295° West 160 184 12,200 1,260 Climbing Montreal Center
08:29AM 45.6500 -74.1667 306° West 160 184 13,400 1,200 Climbing Montreal Center
08:30AM 45.6833 -74.2167 314° West 180 207 14,600 1,080 Climbing Montreal Center
08:31AM 45.7167 -74.2667 314° West 180 207 15,600 660 Climbing Montreal Center
08:32AM 45.7500 -74.3167 314° West 200 230 16,000 180 Climbing Montreal Center
08:33AM 45.8000 -74.3833 317° Northwest 220 253 16,000  Level Montreal Center
08:34AM 45.8500 -74.4333 325° Northwest 240 276 16,000  Level Montreal Center
08:35AM 45.9000 -74.5000 317° Northwest 240 276 16,000  Level Montreal Center
08:36AM 45.9333 -74.5667 306° West 250 288 16,000  Level Montreal Center
08:37AM 46.0000 -74.6333 325° Northwest 250 288 16,000  Level Montreal Center
08:38AM 46.0333 -74.7167 300° West 250 288 16,000  Level Montreal Center
08:39AM 46.0833 -74.7833 317° Northwest 250 288 16,000  Level Montreal Center
08:40AM 46.1333 -74.8500 317° Northwest 250 288 16,000  Level Montreal Center
08:41AM 46.1833 -74.9333 311° West 250 288 16,000  Level Montreal Center
08:42AM 46.2500 -75.0000 325° Northwest 250 288 16,000  Level Montreal Center
08:43AM 46.3000 -75.0667 317° Northwest 250 288 16,000  Level Montreal Center
08:44AM 46.3500 -75.1333 317° Northwest 250 288 16,000  Level Montreal Center
08:45AM 46.4000 -75.2167 311° West 250 288 16,000  Level Montreal Center
08:46AM 46.4500 -75.2833 317° Northwest 260 299 16,000  Level Montreal Center
08:47AM 46.5000 -75.3500 317° Northwest 260 299 16,000  Level Montreal Center
08:48AM 46.5500 -75.4333 311° West 260 299 16,000  Level Montreal Center
08:49AM 46.6000 -75.5000 318° Northwest 260 299 16,000  Level Montreal Center
08:50AM 46.6500 -75.5833 311° West 260 299 16,000  Level Montreal Center
08:51AM 46.7167 -75.6500 326° Northwest 260 299 16,000  Level Montreal Center
08:52AM 46.7667 -75.7167 318° Northwest 260 299 16,000  Level Montreal Center
08:53AM 46.8167 -75.8000 311° West 260 299 16,000  Level Montreal Center
08:54AM 46.8667 -75.8667 318° Northwest 260 299 16,000  Level Montreal Center
08:55AM 46.9167 -75.9500 311° West 260 299 16,000  Level Montreal Center
08:56AM 46.9667 -76.0167 318° Northwest 260 299 16,000  Level Montreal Center
08:57AM 47.0167 -76.0833 318° Northwest 260 299 16,000  Level Montreal Center
08:58AM 47.0667 -76.1667 311° West 260 299 16,000  Level Montreal Center
08:59AM 47.1167 -76.2333 318° Northwest 260 299 16,000  Level Montreal Center
09:00AM 47.1667 -76.3167 311° West 260 299 16,000  Level Montreal Center
09:01AM 47.2167 -76.3833 318° Northwest 260 299 16,000 -60 Level Montreal Center
09:02AM 47.2667 -76.4667 311° West 260 299 15,900 -60 Descending Montreal Center
09:03AM 47.3167 -76.5333 318° Northwest 260 299 15,900  Level Montreal Center
09:04AM 47.3833 -76.6333 315° West 260 299 15,900  Level Montreal Center
09:05AM 47.4333 -76.7167 312° West 260 299 15,900  Level Montreal Center
09:06AM 47.4833 -76.7833 318° Northwest 260 299 15,900  Level Montreal Center
09:07AM 47.5333 -76.8667 312° West 260 299 15,900  Level Montreal Center
09:08AM 47.5833 -76.9333 318° Northwest 260 299 15,900 -360 Level Montreal Center
09:09AM 47.6167 -77.0167 301° West 260 299 15,200 -720 Descending Montreal Center
09:12AM 47.6581 -77.1097 303° West  Level FlightAware Approximate
09:19AM 47.8543 -77.6919 307° West  Level FlightAware Approximate
09:20AM 47.9075 -77.7303 347° North  Level FlightAware Approximate
09:21AM 47.9681 -77.7539 345° North  Level FlightAware Approximate
09:22AM 48.0295 -77.7667 North  Level FlightAware Approximate
09:23AM 48.0500 -77.7667 North  Level FlightAware Approximate
09:24AM 48.0533 -77.7828 North  Level Estimated
09:25AM 48.0533 -77.7828 North  Level Estimated
09:26AM 48.0533 -77.7828 North  Level Estimated
09:27AM 48.0533 -77.7828 North  Level Estimated
09:28AM 48.0533 -77.7828 North  Level Estimated
09:29AM 48.0533 -77.7828 North  Level Estimated